sensor_id;sensor_type;location;lat;lon;timestamp;temperature;humidity
2190;DHT22;1101;51.056;7.262;2023-02-28T00:01:06;-0.50;93.60
2190;DHT22;1101;51.056;7.262;2023-02-28T00:03:34;-0.50;93.60
2190;DHT22;1101;51.056;7.262;2023-02-28T00:06:03;-0.50;93.70
2190;DHT22;1101;51.056;7.262;2023-02-28T00:08:31;-0.50;93.70
2190;DHT22;1101;51.056;7.262;2023-02-28T00:11:01;-0.50;93.70
2190;DHT22;1101;51.056;7.262;2023-02-28T00:13:30;-0.50;93.70
2190;DHT22;1101;51.056;7.262;2023-02-28T00:15:59;-0.60;93.70
2190;DHT22;1101;51.056;7.262;2023-02-28T00:18:27;-0.50;93.70
2190;DHT22;1101;51.056;7.262;2023-02-28T00:20:57;-0.60;93.70
2190;DHT22;1101;51.056;7.262;2023-02-28T00:23:25;-0.60;93.70
2190;DHT22;1101;51.056;7.262;2023-02-28T00:25:53;-0.50;93.80
2190;DHT22;1101;51.056;7.262;2023-02-28T00:28:21;-0.50;93.80
2190;DHT22;1101;51.056;7.262;2023-02-28T00:30:51;-0.60;93.80
2190;DHT22;1101;51.056;7.262;2023-02-28T00:33:19;-0.60;93.80
2190;DHT22;1101;51.056;7.262;2023-02-28T00:35:46;-0.50;93.80
2190;DHT22;1101;51.056;7.262;2023-02-28T00:38:16;-0.60;93.80
2190;DHT22;1101;51.056;7.262;2023-02-28T00:40:44;-0.60;93.80
2190;DHT22;1101;51.056;7.262;2023-02-28T00:43:11;-0.50;93.80
2190;DHT22;1101;51.056;7.262;2023-02-28T00:45:39;-0.70;93.70
2190;DHT22;1101;51.056;7.262;2023-02-28T00:48:08;-0.70;93.80
2190;DHT22;1101;51.056;7.262;2023-02-28T00:50:36;-0.70;93.90
2190;DHT22;1101;51.056;7.262;2023-02-28T00:53:04;-0.70;93.90
2190;DHT22;1101;51.056;7.262;2023-02-28T00:55:32;-0.70;93.90
2190;DHT22;1101;51.056;7.262;2023-02-28T00:58:00;-0.70;93.80
2190;DHT22;1101;51.056;7.262;2023-02-28T01:00:27;-0.70;93.90
2190;DHT22;1101;51.056;7.262;2023-02-28T01:02:55;-0.70;93.90
2190;DHT22;1101;51.056;7.262;2023-02-28T01:05:24;-0.70;93.90
2190;DHT22;1101;51.056;7.262;2023-02-28T01:07:52;-0.70;93.90
2190;DHT22;1101;51.056;7.262;2023-02-28T01:10:19;-0.80;93.80
2190;DHT22;1101;51.056;7.262;2023-02-28T01:12:47;-0.80;94.20
2190;DHT22;1101;51.056;7.262;2023-02-28T01:15:15;-0.80;93.80
2190;DHT22;1101;51.056;7.262;2023-02-28T01:17:43;-0.80;93.90
2190;DHT22;1101;51.056;7.262;2023-02-28T01:20:11;-0.80;93.90
2190;DHT22;1101;51.056;7.262;2023-02-28T01:22:40;-0.90;93.90
2190;DHT22;1101;51.056;7.262;2023-02-28T01:25:08;-0.90;93.90
2190;DHT22;1101;51.056;7.262;2023-02-28T01:27:36;-0.90;93.90
2190;DHT22;1101;51.056;7.262;2023-02-28T01:30:07;-0.90;93.90
2190;DHT22;1101;51.056;7.262;2023-02-28T01:32:35;-0.90;93.90
2190;DHT22;1101;51.056;7.262;2023-02-28T01:35:03;-0.90;93.90
2190;DHT22;1101;51.056;7.262;2023-02-28T01:37:31;-0.90;94.00
2190;DHT22;1101;51.056;7.262;2023-02-28T01:40:00;-1.00;93.90
2190;DHT22;1101;51.056;7.262;2023-02-28T01:42:27;-1.00;93.90
2190;DHT22;1101;51.056;7.262;2023-02-28T01:45:00;-1.00;93.90
2190;DHT22;1101;51.056;7.262;2023-02-28T01:47:31;-1.00;93.90
2190;DHT22;1101;51.056;7.262;2023-02-28T01:50:02;-0.90;93.90
2190;DHT22;1101;51.056;7.262;2023-02-28T01:52:32;-0.90;93.90
2190;DHT22;1101;51.056;7.262;2023-02-28T01:55:04;-0.90;93.90
2190;DHT22;1101;51.056;7.262;2023-02-28T01:57:36;-0.90;93.90
2190;DHT22;1101;51.056;7.262;2023-02-28T02:00:07;-0.90;93.90
2190;DHT22;1101;51.056;7.262;2023-02-28T02:02:36;-0.90;93.90
2190;DHT22;1101;51.056;7.262;2023-02-28T02:05:07;-0.80;93.90
2190;DHT22;1101;51.056;7.262;2023-02-28T02:07:37;-0.90;93.80
2190;DHT22;1101;51.056;7.262;2023-02-28T02:10:14;-0.90;93.80
2190;DHT22;1101;51.056;7.262;2023-02-28T02:13:00;-0.90;93.80
2190;DHT22;1101;51.056;7.262;2023-02-28T02:15:33;-0.90;93.70
2190;DHT22;1101;51.056;7.262;2023-02-28T02:18:07;-0.90;93.50
2190;DHT22;1101;51.056;7.262;2023-02-28T02:21:09;-0.90;93.50
2190;DHT22;1101;51.056;7.262;2023-02-28T02:24:09;-0.90;93.50
2190;DHT22;1101;51.056;7.262;2023-02-28T02:27:05;-0.90;93.30
2190;DHT22;1101;51.056;7.262;2023-02-28T02:35:52;-0.90;93.40
2190;DHT22;1101;51.056;7.262;2023-02-28T02:38:31;-0.90;93.40
2190;DHT22;1101;51.056;7.262;2023-02-28T02:41:07;-0.90;93.40
2190;DHT22;1101;51.056;7.262;2023-02-28T02:43:39;-0.90;93.50
2190;DHT22;1101;51.056;7.262;2023-02-28T02:46:12;-1.00;93.50
2190;DHT22;1101;51.056;7.262;2023-02-28T02:48:42;-1.00;93.50
2190;DHT22;1101;51.056;7.262;2023-02-28T02:51:15;-1.00;93.60
2190;DHT22;1101;51.056;7.262;2023-02-28T02:53:47;-1.10;93.50
2190;DHT22;1101;51.056;7.262;2023-02-28T02:56:19;-1.10;93.60
2190;DHT22;1101;51.056;7.262;2023-02-28T02:58:49;-1.10;93.60
2190;DHT22;1101;51.056;7.262;2023-02-28T03:01:21;-1.10;93.60
2190;DHT22;1101;51.056;7.262;2023-02-28T03:03:56;-1.10;93.60
2190;DHT22;1101;51.056;7.262;2023-02-28T03:06:26;-1.10;93.60
2190;DHT22;1101;51.056;7.262;2023-02-28T03:08:54;-1.10;93.60
2190;DHT22;1101;51.056;7.262;2023-02-28T03:11:22;-1.10;93.60
2190;DHT22;1101;51.056;7.262;2023-02-28T03:14:03;-1.10;93.60
2190;DHT22;1101;51.056;7.262;2023-02-28T03:16:35;-1.10;93.60
2190;DHT22;1101;51.056;7.262;2023-02-28T03:19:23;-1.20;93.60
2190;DHT22;1101;51.056;7.262;2023-02-28T03:25:01;-1.20;93.70
2190;DHT22;1101;51.056;7.262;2023-02-28T03:27:40;-1.20;93.70
2190;DHT22;1101;51.056;7.262;2023-02-28T03:30:11;-1.30;93.70
2190;DHT22;1101;51.056;7.262;2023-02-28T03:32:50;-1.30;93.70
2190;DHT22;1101;51.056;7.262;2023-02-28T03:35:22;-1.30;93.70
2190;DHT22;1101;51.056;7.262;2023-02-28T03:37:53;-1.30;93.70
2190;DHT22;1101;51.056;7.262;2023-02-28T03:40:25;-1.30;93.70
2190;DHT22;1101;51.056;7.262;2023-02-28T03:42:58;-1.40;93.70
2190;DHT22;1101;51.056;7.262;2023-02-28T03:45:30;-1.40;93.70
2190;DHT22;1101;51.056;7.262;2023-02-28T03:48:03;-1.30;93.80
2190;DHT22;1101;51.056;7.262;2023-02-28T03:50:36;-1.40;93.80
2190;DHT22;1101;51.056;7.262;2023-02-28T03:53:11;-1.40;93.80
2190;DHT22;1101;51.056;7.262;2023-02-28T03:55:45;-1.40;93.80
2190;DHT22;1101;51.056;7.262;2023-02-28T03:58:17;-1.40;93.80
2190;DHT22;1101;51.056;7.262;2023-02-28T04:00:55;-1.50;93.80
2190;DHT22;1101;51.056;7.262;2023-02-28T04:03:24;-1.50;93.80
2190;DHT22;1101;51.056;7.262;2023-02-28T04:05:53;-1.50;93.90
2190;DHT22;1101;51.056;7.262;2023-02-28T04:08:23;-1.40;93.90
2190;DHT22;1101;51.056;7.262;2023-02-28T04:10:55;-1.50;93.80
2190;DHT22;1101;51.056;7.262;2023-02-28T04:13:24;-1.50;93.80
2190;DHT22;1101;51.056;7.262;2023-02-28T04:15:52;-1.50;93.80
2190;DHT22;1101;51.056;7.262;2023-02-28T04:18:20;-1.50;93.90
2190;DHT22;1101;51.056;7.262;2023-02-28T04:20:47;-1.60;93.80
2190;DHT22;1101;51.056;7.262;2023-02-28T04:23:15;-1.60;93.80
2190;DHT22;1101;51.056;7.262;2023-02-28T04:25:44;-1.60;93.70
2190;DHT22;1101;51.056;7.262;2023-02-28T04:28:12;-1.60;93.70
2190;DHT22;1101;51.056;7.262;2023-02-28T04:30:39;-1.60;93.80
2190;DHT22;1101;51.056;7.262;2023-02-28T04:33:07;-1.60;93.80
2190;DHT22;1101;51.056;7.262;2023-02-28T04:35:35;-1.60;93.80
2190;DHT22;1101;51.056;7.262;2023-02-28T04:38:03;-1.60;93.80
2190;DHT22;1101;51.056;7.262;2023-02-28T04:40:31;-1.70;93.70
2190;DHT22;1101;51.056;7.262;2023-02-28T04:43:00;-1.70;93.70
2190;DHT22;1101;51.056;7.262;2023-02-28T04:45:27;-1.60;94.10
2190;DHT22;1101;51.056;7.262;2023-02-28T04:47:56;-1.70;93.80
2190;DHT22;1101;51.056;7.262;2023-02-28T04:50:24;-1.70;93.80
2190;DHT22;1101;51.056;7.262;2023-02-28T04:52:52;-1.70;93.80
2190;DHT22;1101;51.056;7.262;2023-02-28T04:55:21;-1.70;93.80
2190;DHT22;1101;51.056;7.262;2023-02-28T04:57:48;-1.70;93.90
2190;DHT22;1101;51.056;7.262;2023-02-28T05:00:18;-1.80;93.80
2190;DHT22;1101;51.056;7.262;2023-02-28T05:02:46;-1.80;93.90
2190;DHT22;1101;51.056;7.262;2023-02-28T05:05:14;-1.80;93.90
2190;DHT22;1101;51.056;7.262;2023-02-28T05:07:45;-1.80;93.90
2190;DHT22;1101;51.056;7.262;2023-02-28T05:10:12;-1.90;93.90
2190;DHT22;1101;51.056;7.262;2023-02-28T05:12:40;-1.80;93.90
2190;DHT22;1101;51.056;7.262;2023-02-28T05:15:11;-1.80;94.00
2190;DHT22;1101;51.056;7.262;2023-02-28T05:17:41;-1.80;94.00
2190;DHT22;1101;51.056;7.262;2023-02-28T05:20:10;-1.80;94.00
2190;DHT22;1101;51.056;7.262;2023-02-28T05:22:42;-1.80;94.00
2190;DHT22;1101;51.056;7.262;2023-02-28T05:25:13;-1.80;94.00
2190;DHT22;1101;51.056;7.262;2023-02-28T05:27:43;-1.80;94.00
2190;DHT22;1101;51.056;7.262;2023-02-28T05:30:12;-1.80;94.00
2190;DHT22;1101;51.056;7.262;2023-02-28T05:32:41;-1.80;93.90
2190;DHT22;1101;51.056;7.262;2023-02-28T05:35:11;-1.80;93.90
2190;DHT22;1101;51.056;7.262;2023-02-28T05:37:39;-1.80;93.90
2190;DHT22;1101;51.056;7.262;2023-02-28T05:40:08;-1.80;93.90
2190;DHT22;1101;51.056;7.262;2023-02-28T05:42:37;-1.80;93.80
2190;DHT22;1101;51.056;7.262;2023-02-28T05:45:06;-1.80;93.80
2190;DHT22;1101;51.056;7.262;2023-02-28T05:47:34;-1.90;93.80
2190;DHT22;1101;51.056;7.262;2023-02-28T05:50:05;-1.90;93.70
2190;DHT22;1101;51.056;7.262;2023-02-28T05:52:33;-1.90;93.70
2190;DHT22;1101;51.056;7.262;2023-02-28T05:55:01;-1.90;93.70
2190;DHT22;1101;51.056;7.262;2023-02-28T05:57:29;-1.90;93.70
2190;DHT22;1101;51.056;7.262;2023-02-28T05:59:57;-1.90;93.70
2190;DHT22;1101;51.056;7.262;2023-02-28T06:02:24;-1.80;93.70
2190;DHT22;1101;51.056;7.262;2023-02-28T06:04:52;-1.90;93.60
2190;DHT22;1101;51.056;7.262;2023-02-28T06:07:21;-1.90;93.60
2190;DHT22;1101;51.056;7.262;2023-02-28T06:09:49;-1.90;93.60
2190;DHT22;1101;51.056;7.262;2023-02-28T06:12:17;-1.90;93.60
2190;DHT22;1101;51.056;7.262;2023-02-28T06:14:45;-1.90;93.60
2190;DHT22;1101;51.056;7.262;2023-02-28T06:17:12;-1.90;93.60
2190;DHT22;1101;51.056;7.262;2023-02-28T06:19:40;-2.00;93.50
2190;DHT22;1101;51.056;7.262;2023-02-28T06:22:08;-1.90;93.60
2190;DHT22;1101;51.056;7.262;2023-02-28T06:24:37;-2.00;93.50
2190;DHT22;1101;51.056;7.262;2023-02-28T06:27:05;-1.90;93.50
2190;DHT22;1101;51.056;7.262;2023-02-28T06:29:34;-2.00;93.50
2190;DHT22;1101;51.056;7.262;2023-02-28T06:32:02;-2.00;93.50
2190;DHT22;1101;51.056;7.262;2023-02-28T06:34:30;-2.00;93.50
2190;DHT22;1101;51.056;7.262;2023-02-28T06:36:57;-2.00;93.50
2190;DHT22;1101;51.056;7.262;2023-02-28T06:39:28;-1.90;93.50
2190;DHT22;1101;51.056;7.262;2023-02-28T06:41:57;-2.00;93.40
2190;DHT22;1101;51.056;7.262;2023-02-28T06:44:25;-1.90;93.40
2190;DHT22;1101;51.056;7.262;2023-02-28T06:46:53;-1.90;93.30
2190;DHT22;1101;51.056;7.262;2023-02-28T06:49:21;-1.90;93.40
2190;DHT22;1101;51.056;7.262;2023-02-28T06:51:48;-1.90;93.30
2190;DHT22;1101;51.056;7.262;2023-02-28T06:54:16;-1.90;93.40
2190;DHT22;1101;51.056;7.262;2023-02-28T06:56:44;-1.80;93.40
2190;DHT22;1101;51.056;7.262;2023-02-28T06:59:13;-1.80;93.30
2190;DHT22;1101;51.056;7.262;2023-02-28T07:01:41;-1.70;93.20
2190;DHT22;1101;51.056;7.262;2023-02-28T07:04:09;-1.70;93.30
2190;DHT22;1101;51.056;7.262;2023-02-28T07:06:36;-1.70;93.30
2190;DHT22;1101;51.056;7.262;2023-02-28T07:09:04;-1.60;93.30
2190;DHT22;1101;51.056;7.262;2023-02-28T07:11:32;-1.50;93.40
2190;DHT22;1101;51.056;7.262;2023-02-28T07:14:00;-1.50;93.30
2190;DHT22;1101;51.056;7.262;2023-02-28T07:16:29;-1.40;93.30
2190;DHT22;1101;51.056;7.262;2023-02-28T07:18:57;-1.40;93.30
2190;DHT22;1101;51.056;7.262;2023-02-28T07:21:25;-1.30;93.40
2190;DHT22;1101;51.056;7.262;2023-02-28T07:23:53;-1.30;93.40
2190;DHT22;1101;51.056;7.262;2023-02-28T07:26:21;-1.20;93.50
2190;DHT22;1101;51.056;7.262;2023-02-28T07:28:49;-1.20;93.40
2190;DHT22;1101;51.056;7.262;2023-02-28T07:31:17;-1.10;93.50
2190;DHT22;1101;51.056;7.262;2023-02-28T07:33:47;-1.10;93.50
2190;DHT22;1101;51.056;7.262;2023-02-28T07:36:16;-1.00;93.60
2190;DHT22;1101;51.056;7.262;2023-02-28T07:38:46;-0.90;93.60
2190;DHT22;1101;51.056;7.262;2023-02-28T07:41:17;-0.90;93.50
2190;DHT22;1101;51.056;7.262;2023-02-28T07:43:45;-0.80;93.50
2190;DHT22;1101;51.056;7.262;2023-02-28T07:46:15;-0.70;93.50
2190;DHT22;1101;51.056;7.262;2023-02-28T07:48:44;-0.70;93.50
2190;DHT22;1101;51.056;7.262;2023-02-28T07:51:13;-0.70;93.50
2190;DHT22;1101;51.056;7.262;2023-02-28T07:53:41;-0.60;93.50
2190;DHT22;1101;51.056;7.262;2023-02-28T07:56:08;-0.50;93.60
2190;DHT22;1101;51.056;7.262;2023-02-28T07:58:37;-0.50;93.50
2190;DHT22;1101;51.056;7.262;2023-02-28T08:01:06;-0.40;93.60
2190;DHT22;1101;51.056;7.262;2023-02-28T08:03:34;-0.30;93.60
2190;DHT22;1101;51.056;7.262;2023-02-28T08:06:03;-0.30;93.60
2190;DHT22;1101;51.056;7.262;2023-02-28T08:08:33;-0.20;93.60
2190;DHT22;1101;51.056;7.262;2023-02-28T08:11:02;-0.10;93.70
2190;DHT22;1101;51.056;7.262;2023-02-28T08:13:30;0.10;93.80
2190;DHT22;1101;51.056;7.262;2023-02-28T08:16:01;0.20;93.80
2190;DHT22;1101;51.056;7.262;2023-02-28T08:18:29;0.30;93.70
2190;DHT22;1101;51.056;7.262;2023-02-28T08:20:57;0.30;93.50
2190;DHT22;1101;51.056;7.262;2023-02-28T08:23:26;0.40;93.40
2190;DHT22;1101;51.056;7.262;2023-02-28T08:25:56;0.40;93.30
2190;DHT22;1101;51.056;7.262;2023-02-28T08:28:24;0.40;93.30
2190;DHT22;1101;51.056;7.262;2023-02-28T08:30:53;0.50;93.30
2190;DHT22;1101;51.056;7.262;2023-02-28T08:33:21;0.50;93.30
2190;DHT22;1101;51.056;7.262;2023-02-28T08:35:52;0.60;93.30
2190;DHT22;1101;51.056;7.262;2023-02-28T08:38:21;0.60;93.30
2190;DHT22;1101;51.056;7.262;2023-02-28T08:40:49;0.60;93.30
2190;DHT22;1101;51.056;7.262;2023-02-28T08:43:18;0.70;93.30
2190;DHT22;1101;51.056;7.262;2023-02-28T08:45:46;0.80;93.30
2190;DHT22;1101;51.056;7.262;2023-02-28T08:48:14;0.80;93.20
2190;DHT22;1101;51.056;7.262;2023-02-28T08:50:54;0.80;93.20
2190;DHT22;1101;51.056;7.262;2023-02-28T08:53:33;0.90;93.20
2190;DHT22;1101;51.056;7.262;2023-02-28T08:56:02;0.90;93.20
2190;DHT22;1101;51.056;7.262;2023-02-28T08:58:32;1.00;93.20
2190;DHT22;1101;51.056;7.262;2023-02-28T09:01:06;1.00;93.10
2190;DHT22;1101;51.056;7.262;2023-02-28T09:03:34;1.10;93.00
2190;DHT22;1101;51.056;7.262;2023-02-28T09:06:02;1.10;92.90
2190;DHT22;1101;51.056;7.262;2023-02-28T09:08:31;1.10;93.00
2190;DHT22;1101;51.056;7.262;2023-02-28T09:10:59;1.20;93.00
2190;DHT22;1101;51.056;7.262;2023-02-28T09:13:31;1.20;93.00
2190;DHT22;1101;51.056;7.262;2023-02-28T09:16:00;1.30;93.00
2190;DHT22;1101;51.056;7.262;2023-02-28T09:18:28;1.30;92.90
2190;DHT22;1101;51.056;7.262;2023-02-28T09:20:57;1.40;92.80
2190;DHT22;1101;51.056;7.262;2023-02-28T09:23:25;1.40;92.60
2190;DHT22;1101;51.056;7.262;2023-02-28T09:25:54;1.50;92.60
2190;DHT22;1101;51.056;7.262;2023-02-28T09:28:22;1.60;92.60
2190;DHT22;1101;51.056;7.262;2023-02-28T09:30:53;1.60;92.20
2190;DHT22;1101;51.056;7.262;2023-02-28T09:33:22;1.70;92.70
2190;DHT22;1101;51.056;7.262;2023-02-28T09:35:51;1.70;92.00
2190;DHT22;1101;51.056;7.262;2023-02-28T09:38:24;1.80;91.80
2190;DHT22;1101;51.056;7.262;2023-02-28T09:40:55;1.80;91.90
2190;DHT22;1101;51.056;7.262;2023-02-28T09:43:26;1.90;92.10
2190;DHT22;1101;51.056;7.262;2023-02-28T09:46:00;2.00;91.40
2190;DHT22;1101;51.056;7.262;2023-02-28T09:48:33;2.10;91.00
2190;DHT22;1101;51.056;7.262;2023-02-28T09:51:12;2.10;91.10
2190;DHT22;1101;51.056;7.262;2023-02-28T09:53:41;2.00;90.80
2190;DHT22;1101;51.056;7.262;2023-02-28T09:56:18;2.00;90.60
2190;DHT22;1101;51.056;7.262;2023-02-28T09:58:56;2.00;91.00
2190;DHT22;1101;51.056;7.262;2023-02-28T10:01:33;2.10;91.20
2190;DHT22;1101;51.056;7.262;2023-02-28T10:04:12;2.10;91.30
2190;DHT22;1101;51.056;7.262;2023-02-28T10:06:45;2.20;91.40
2190;DHT22;1101;51.056;7.262;2023-02-28T10:09:18;2.20;91.40
2190;DHT22;1101;51.056;7.262;2023-02-28T10:11:47;2.30;91.00
2190;DHT22;1101;51.056;7.262;2023-02-28T10:14:18;2.40;91.20
2190;DHT22;1101;51.056;7.262;2023-02-28T10:16:50;2.40;91.30
2190;DHT22;1101;51.056;7.262;2023-02-28T10:19:25;2.60;91.40
2190;DHT22;1101;51.056;7.262;2023-02-28T10:22:00;2.70;90.60
2190;DHT22;1101;51.056;7.262;2023-02-28T10:24:32;2.70;90.40
2190;DHT22;1101;51.056;7.262;2023-02-28T10:27:10;2.70;90.10
2190;DHT22;1101;51.056;7.262;2023-02-28T10:29:43;2.80;90.20
2190;DHT22;1101;51.056;7.262;2023-02-28T10:32:15;2.80;88.70
2190;DHT22;1101;51.056;7.262;2023-02-28T10:34:44;2.80;90.00
2190;DHT22;1101;51.056;7.262;2023-02-28T10:37:13;2.80;89.00
2190;DHT22;1101;51.056;7.262;2023-02-28T10:39:44;2.80;90.00
2190;DHT22;1101;51.056;7.262;2023-02-28T10:42:21;2.90;90.10
2190;DHT22;1101;51.056;7.262;2023-02-28T10:45:10;2.90;89.60
2190;DHT22;1101;51.056;7.262;2023-02-28T10:47:49;2.90;89.70
2190;DHT22;1101;51.056;7.262;2023-02-28T10:50:28;2.90;90.40
2190;DHT22;1101;51.056;7.262;2023-02-28T10:53:10;3.00;90.20
2190;DHT22;1101;51.056;7.262;2023-02-28T10:55:42;3.10;90.20
2190;DHT22;1101;51.056;7.262;2023-02-28T10:58:23;3.10;90.10
2190;DHT22;1101;51.056;7.262;2023-02-28T11:00:51;3.10;89.10
2190;DHT22;1101;51.056;7.262;2023-02-28T11:03:28;3.20;90.10
2190;DHT22;1101;51.056;7.262;2023-02-28T11:05:57;3.20;90.30
2190;DHT22;1101;51.056;7.262;2023-02-28T11:08:25;3.30;89.30
2190;DHT22;1101;51.056;7.262;2023-02-28T11:10:55;3.20;88.70
2190;DHT22;1101;51.056;7.262;2023-02-28T11:13:27;3.10;88.40
2190;DHT22;1101;51.056;7.262;2023-02-28T11:15:58;3.10;88.80
2190;DHT22;1101;51.056;7.262;2023-02-28T11:18:30;3.20;90.00
2190;DHT22;1101;51.056;7.262;2023-02-28T11:21:02;3.20;89.40
2190;DHT22;1101;51.056;7.262;2023-02-28T11:23:32;3.20;86.50
2190;DHT22;1101;51.056;7.262;2023-02-28T11:26:04;3.10;87.20
2190;DHT22;1101;51.056;7.262;2023-02-28T11:28:39;3.10;86.00
2190;DHT22;1101;51.056;7.262;2023-02-28T11:31:17;3.00;85.30
2190;DHT22;1101;51.056;7.262;2023-02-28T11:33:48;2.80;86.00
2190;DHT22;1101;51.056;7.262;2023-02-28T11:36:19;2.80;87.90
2190;DHT22;1101;51.056;7.262;2023-02-28T11:38:48;2.90;89.60
2190;DHT22;1101;51.056;7.262;2023-02-28T11:41:42;3.00;89.00
2190;DHT22;1101;51.056;7.262;2023-02-28T11:44:24;3.10;88.90
2190;DHT22;1101;51.056;7.262;2023-02-28T11:46:59;3.20;89.40
2190;DHT22;1101;51.056;7.262;2023-02-28T11:49:35;3.30;88.90
2190;DHT22;1101;51.056;7.262;2023-02-28T11:52:20;3.40;88.50
2190;DHT22;1101;51.056;7.262;2023-02-28T11:54:58;3.50;89.30
2190;DHT22;1101;51.056;7.262;2023-02-28T11:57:39;3.70;89.40
2190;DHT22;1101;51.056;7.262;2023-02-28T12:00:25;3.80;89.40
2190;DHT22;1101;51.056;7.262;2023-02-28T12:03:03;3.80;88.60
2190;DHT22;1101;51.056;7.262;2023-02-28T12:05:41;3.90;87.70
2190;DHT22;1101;51.056;7.262;2023-02-28T12:08:22;4.00;88.40
2190;DHT22;1101;51.056;7.262;2023-02-28T12:11:01;4.10;88.20
2190;DHT22;1101;51.056;7.262;2023-02-28T12:13:41;4.20;88.30
2190;DHT22;1101;51.056;7.262;2023-02-28T12:16:30;4.20;88.10
2190;DHT22;1101;51.056;7.262;2023-02-28T12:19:21;4.30;88.50
2190;DHT22;1101;51.056;7.262;2023-02-28T12:22:13;4.40;88.50
2190;DHT22;1101;51.056;7.262;2023-02-28T12:25:20;4.50;87.40
2190;DHT22;1101;51.056;7.262;2023-02-28T12:27:51;4.50;88.20
2190;DHT22;1101;51.056;7.262;2023-02-28T12:30:23;4.60;87.60
2190;DHT22;1101;51.056;7.262;2023-02-28T12:32:55;4.60;88.40
2190;DHT22;1101;51.056;7.262;2023-02-28T12:35:27;4.70;88.40
2190;DHT22;1101;51.056;7.262;2023-02-28T12:38:04;4.80;88.30
2190;DHT22;1101;51.056;7.262;2023-02-28T12:40:42;4.80;87.90
2190;DHT22;1101;51.056;7.262;2023-02-28T12:43:13;4.90;87.50
2190;DHT22;1101;51.056;7.262;2023-02-28T12:45:44;4.80;88.00
2190;DHT22;1101;51.056;7.262;2023-02-28T12:48:20;4.80;87.50
2190;DHT22;1101;51.056;7.262;2023-02-28T12:50:49;4.80;87.10
2190;DHT22;1101;51.056;7.262;2023-02-28T12:53:25;4.90;87.30
2190;DHT22;1101;51.056;7.262;2023-02-28T12:56:02;4.80;86.80
2190;DHT22;1101;51.056;7.262;2023-02-28T12:58:35;4.80;87.30
2190;DHT22;1101;51.056;7.262;2023-02-28T13:01:23;4.70;86.90
2190;DHT22;1101;51.056;7.262;2023-02-28T13:04:16;4.70;86.80
2190;DHT22;1101;51.056;7.262;2023-02-28T13:07:00;4.60;87.20
2190;DHT22;1101;51.056;7.262;2023-02-28T13:09:32;4.70;86.30
2190;DHT22;1101;51.056;7.262;2023-02-28T13:12:00;4.70;86.80
2190;DHT22;1101;51.056;7.262;2023-02-28T13:14:30;4.80;86.70
2190;DHT22;1101;51.056;7.262;2023-02-28T13:17:10;4.80;87.20
2190;DHT22;1101;51.056;7.262;2023-02-28T13:19:41;4.80;86.50
2190;DHT22;1101;51.056;7.262;2023-02-28T13:22:18;4.80;86.30
2190;DHT22;1101;51.056;7.262;2023-02-28T13:24:49;4.90;87.10
2190;DHT22;1101;51.056;7.262;2023-02-28T13:27:24;4.90;87.50
2190;DHT22;1101;51.056;7.262;2023-02-28T13:29:59;5.00;87.90
2190;DHT22;1101;51.056;7.262;2023-02-28T13:32:34;5.00;87.70
2190;DHT22;1101;51.056;7.262;2023-02-28T13:44:04;5.30;86.30
2190;DHT22;1101;51.056;7.262;2023-02-28T13:46:33;5.20;84.90
2190;DHT22;1101;51.056;7.262;2023-02-28T13:49:25;5.20;86.40
2190;DHT22;1101;51.056;7.262;2023-02-28T13:52:03;5.20;86.60
2190;DHT22;1101;51.056;7.262;2023-02-28T13:54:51;5.20;87.20
2190;DHT22;1101;51.056;7.262;2023-02-28T13:57:32;5.30;87.70
2190;DHT22;1101;51.056;7.262;2023-02-28T14:00:14;5.40;87.80
2190;DHT22;1101;51.056;7.262;2023-02-28T14:03:02;5.50;87.70
2190;DHT22;1101;51.056;7.262;2023-02-28T14:05:35;5.50;86.70
2190;DHT22;1101;51.056;7.262;2023-02-28T14:08:06;5.50;86.70
2190;DHT22;1101;51.056;7.262;2023-02-28T14:10:39;5.40;87.00
2190;DHT22;1101;51.056;7.262;2023-02-28T14:15:57;5.40;86.30
2190;DHT22;1101;51.056;7.262;2023-02-28T14:18:29;5.40;84.90
2190;DHT22;1101;51.056;7.262;2023-02-28T14:21:02;5.40;84.80
2190;DHT22;1101;51.056;7.262;2023-02-28T14:26:44;5.30;85.40
2190;DHT22;1101;51.056;7.262;2023-02-28T14:29:42;5.30;86.20
2190;DHT22;1101;51.056;7.262;2023-02-28T14:32:14;5.30;86.60
2190;DHT22;1101;51.056;7.262;2023-02-28T14:34:53;5.40;85.70
2190;DHT22;1101;51.056;7.262;2023-02-28T14:37:27;5.40;84.10
2190;DHT22;1101;51.056;7.262;2023-02-28T14:39:57;5.40;83.20
2190;DHT22;1101;51.056;7.262;2023-02-28T14:42:30;5.40;83.30
2190;DHT22;1101;51.056;7.262;2023-02-28T14:45:00;5.40;83.70
2190;DHT22;1101;51.056;7.262;2023-02-28T14:47:31;5.40;84.60
2190;DHT22;1101;51.056;7.262;2023-02-28T14:49:59;5.40;85.30
2190;DHT22;1101;51.056;7.262;2023-02-28T14:52:29;5.50;85.40
2190;DHT22;1101;51.056;7.262;2023-02-28T14:55:00;5.50;85.00
2190;DHT22;1101;51.056;7.262;2023-02-28T14:57:30;5.50;85.40
2190;DHT22;1101;51.056;7.262;2023-02-28T15:00:02;5.50;86.30
2190;DHT22;1101;51.056;7.262;2023-02-28T15:02:38;5.50;86.10
2190;DHT22;1101;51.056;7.262;2023-02-28T15:05:28;5.60;86.20
2190;DHT22;1101;51.056;7.262;2023-02-28T15:08:11;5.60;85.70
2190;DHT22;1101;51.056;7.262;2023-02-28T15:10:41;5.50;84.80
2190;DHT22;1101;51.056;7.262;2023-02-28T15:13:13;5.40;84.60
2190;DHT22;1101;51.056;7.262;2023-02-28T15:15:47;5.40;83.90
2190;DHT22;1101;51.056;7.262;2023-02-28T15:18:33;5.20;83.50
2190;DHT22;1101;51.056;7.262;2023-02-28T15:21:07;5.10;84.00
2190;DHT22;1101;51.056;7.262;2023-02-28T15:23:36;5.10;84.10
2190;DHT22;1101;51.056;7.262;2023-02-28T15:26:05;5.00;84.10
2190;DHT22;1101;51.056;7.262;2023-02-28T15:28:33;4.90;84.30
2190;DHT22;1101;51.056;7.262;2023-02-28T15:31:03;4.80;84.00
2190;DHT22;1101;51.056;7.262;2023-02-28T15:33:52;4.80;84.30
2190;DHT22;1101;51.056;7.262;2023-02-28T15:36:25;4.70;83.60
2190;DHT22;1101;51.056;7.262;2023-02-28T15:38:55;4.70;84.50
2190;DHT22;1101;51.056;7.262;2023-02-28T15:41:37;4.70;83.70
2190;DHT22;1101;51.056;7.262;2023-02-28T15:44:17;4.60;82.50
2190;DHT22;1101;51.056;7.262;2023-02-28T15:46:57;4.50;82.80
2190;DHT22;1101;51.056;7.262;2023-02-28T15:49:26;4.50;82.70
2190;DHT22;1101;51.056;7.262;2023-02-28T15:51:56;4.40;82.90
2190;DHT22;1101;51.056;7.262;2023-02-28T15:54:28;4.40;82.80
2190;DHT22;1101;51.056;7.262;2023-02-28T15:56:58;4.40;82.50
2190;DHT22;1101;51.056;7.262;2023-02-28T15:59:30;4.30;82.50
2190;DHT22;1101;51.056;7.262;2023-02-28T16:02:13;4.30;83.00
2190;DHT22;1101;51.056;7.262;2023-02-28T16:04:58;4.30;82.50
2190;DHT22;1101;51.056;7.262;2023-02-28T16:07:27;4.20;82.40
2190;DHT22;1101;51.056;7.262;2023-02-28T16:09:55;4.20;82.80
2190;DHT22;1101;51.056;7.262;2023-02-28T16:12:26;4.10;82.50
2190;DHT22;1101;51.056;7.262;2023-02-28T16:14:55;4.10;82.50
2190;DHT22;1101;51.056;7.262;2023-02-28T16:17:27;4.10;82.80
2190;DHT22;1101;51.056;7.262;2023-02-28T16:19:55;4.00;83.00
2190;DHT22;1101;51.056;7.262;2023-02-28T16:22:23;4.00;83.30
2190;DHT22;1101;51.056;7.262;2023-02-28T16:24:51;4.00;83.30
2190;DHT22;1101;51.056;7.262;2023-02-28T16:27:21;4.00;83.50
2190;DHT22;1101;51.056;7.262;2023-02-28T16:29:53;4.00;83.60
2190;DHT22;1101;51.056;7.262;2023-02-28T16:32:21;3.90;83.90
2190;DHT22;1101;51.056;7.262;2023-02-28T16:34:50;3.90;83.70
2190;DHT22;1101;51.056;7.262;2023-02-28T16:37:18;3.90;83.50
2190;DHT22;1101;51.056;7.262;2023-02-28T16:39:46;3.90;83.50
2190;DHT22;1101;51.056;7.262;2023-02-28T16:42:21;3.80;83.70
2190;DHT22;1101;51.056;7.262;2023-02-28T16:44:50;3.80;83.00
2190;DHT22;1101;51.056;7.262;2023-02-28T16:47:18;3.70;83.00
2190;DHT22;1101;51.056;7.262;2023-02-28T16:49:45;3.70;83.60
2190;DHT22;1101;51.056;7.262;2023-02-28T16:52:15;3.60;83.20
2190;DHT22;1101;51.056;7.262;2023-02-28T16:54:43;3.60;83.50
2190;DHT22;1101;51.056;7.262;2023-02-28T16:57:19;3.60;83.70
2190;DHT22;1101;51.056;7.262;2023-02-28T16:59:48;3.50;83.40
2190;DHT22;1101;51.056;7.262;2023-02-28T17:02:18;3.50;83.60
2190;DHT22;1101;51.056;7.262;2023-02-28T17:04:47;3.50;83.70